Time;durP1;ratioP1;P1;durP2;ratioP2;P2;SDS_P1;SDS_P2;PMS_P1;PMS_P2;Temp;Humidity;BMP_temperature;BMP_pressure;BME280_temperature;BME280_humidity;BME280_pressure;Samples;Min_cycle;Max_cycle;Signal;HPM_P1;HPM_P2
2021/09/08 00:01:46;;;;;;;25.05;21.23;;;;;;;18.64;52.47;95796.19;5009119;28;20037;-73
2021/09/08 00:04:11;;;;;;;30.02;24.70;;;;;;;18.66;52.51;95793.16;5010983;28;20470;-73
2021/09/08 00:06:37;;;;;;;24.08;21.60;;;;;;;18.57;52.73;95777.09;4991264;28;20133;-72
2021/09/08 00:09:02;;;;;;;27.70;23.55;;;;;;;18.57;52.72;95774.41;5007939;28;20038;-73
2021/09/08 00:11:28;;;;;;;32.15;24.45;;;;;;;18.47;52.65;95776.78;5008789;28;20034;-75
2021/09/08 00:13:53;;;;;;;23.88;21.38;;;;;;;18.42;52.76;95767.03;5008967;28;20097;-73
2021/09/08 00:16:18;;;;;;;29.75;20.85;;;;;;;18.41;52.89;95768.94;4992898;28;20037;-74
2021/09/08 00:18:44;;;;;;;31.13;25.08;;;;;;;18.36;52.74;95763.78;5008411;28;20204;-74
2021/09/08 00:21:09;;;;;;;32.60;25.08;;;;;;;18.41;52.67;95773.53;5008929;28;20054;-72
2021/09/08 00:23:34;;;;;;;30.98;25.30;;;;;;;18.27;52.79;95756.94;4990902;28;20048;-73
2021/09/08 00:26:00;;;;;;;31.83;23.13;;;;;;;18.24;52.85;95757.63;5008840;28;20483;-72
2021/09/08 00:28:25;;;;;;;33.75;25.30;;;;;;;18.26;52.92;95768.84;5010652;28;20030;-73
2021/09/08 00:30:51;;;;;;;25.30;22.63;;;;;;;18.17;52.99;95760.91;5008444;28;20053;-73
2021/09/08 00:33:16;;;;;;;31.05;25.15;;;;;;;18.16;53.08;95760.09;5008553;28;20041;-73
2021/09/08 00:35:41;;;;;;;25.40;22.17;;;;;;;18.07;53.13;95750.56;5008810;28;20125;-73
2021/09/08 00:38:11;;;;;;;28.40;23.80;;;;;;;17.99;53.34;95736.09;5008279;28;20044;-73
2021/09/08 00:40:37;;;;;;;25.00;22.10;;;;;;;17.99;53.33;95738.00;4992593;28;20120;-73
2021/09/08 00:43:02;;;;;;;23.60;21.08;;;;;;;18.01;53.49;95747.28;4990169;28;20217;-74
2021/09/08 00:45:27;;;;;;;27.90;21.77;;;;;;;17.91;53.19;95727.03;5011290;28;20041;-74
2021/09/08 00:47:53;;;;;;;29.05;23.48;;;;;;;18.06;53.32;95743.59;4995207;28;20030;-73
2021/09/08 00:50:18;;;;;;;29.88;23.42;;;;;;;17.95;53.34;95724.41;5012073;28;20046;-74
2021/09/08 00:52:47;;;;;;;27.75;24.40;;;;;;;17.95;53.20;95724.41;5011864;28;20038;-73
2021/09/08 00:55:12;;;;;;;26.50;23.65;;;;;;;18.00;53.14;95734.97;4996523;28;20076;-73
2021/09/08 00:57:39;;;;;;;29.40;24.70;;;;;;;17.93;53.34;95723.97;4994756;28;20034;-74
2021/09/08 01:00:06;;;;;;;28.33;23.55;;;;;;;17.86;53.49;95707.59;4994146;28;20125;-73
2021/09/08 01:02:31;;;;;;;27.20;22.83;;;;;;;17.87;53.54;95715.34;4994747;28;20044;-73
2021/09/08 01:04:56;;;;;;;27.25;23.25;;;;;;;17.84;53.67;95712.53;5011996;28;20038;-73
2021/09/08 01:07:22;;;;;;;30.92;24.65;;;;;;;17.95;53.34;95727.13;5014246;28;20050;-72
2021/09/08 01:09:48;;;;;;;35.50;26.15;;;;;;;17.91;53.35;95731.59;4993390;28;20113;-72
2021/09/08 01:12:15;;;;;;;30.00;24.95;;;;;;;17.83;53.56;95727.13;5012004;28;20133;-73
2021/09/08 01:14:43;;;;;;;31.85;24.23;;;;;;;17.82;53.62;95722.88;5011707;28;20052;-73
2021/09/08 01:17:09;;;;;;;33.30;25.85;;;;;;;17.72;53.47;95712.50;5011760;28;20038;-73
2021/09/08 01:19:35;;;;;;;37.00;27.23;;;;;;;17.68;53.69;95709.69;5013602;28;20025;-73
2021/09/08 01:22:01;;;;;;;35.17;24.27;;;;;;;17.69;53.79;95724.72;5011596;28;20045;-77
2021/09/08 01:24:26;;;;;;;31.23;25.02;;;;;;;17.68;53.79;95715.88;5011099;28;20038;-73
2021/09/08 01:26:55;;;;;;;35.15;26.60;;;;;;;17.67;53.77;95718.91;5011587;28;20034;-73
2021/09/08 01:29:21;;;;;;;32.00;25.58;;;;;;;17.67;53.59;95726.97;4993449;28;20044;-72
2021/09/08 01:31:55;;;;;;;40.47;28.13;;;;;;;17.58;53.84;95705.53;5011819;28;20132;-73
2021/09/08 01:34:21;;;;;;;33.85;25.83;;;;;;;17.64;53.88;95719.56;4995953;28;20030;-73
2021/09/08 01:36:47;;;;;;;28.98;24.77;;;;;;;17.59;54.00;95714.38;4994163;28;20536;-73
2021/09/08 01:39:16;;;;;;;28.85;24.67;;;;;;;17.54;54.13;95707.31;4992802;28;20055;-73
2021/09/08 01:41:42;;;;;;;30.70;24.35;;;;;;;17.58;53.85;95715.50;4993962;28;20034;-73
2021/09/08 01:44:07;;;;;;;33.08;26.05;;;;;;;17.53;54.23;95703.06;4993928;28;20033;-73
2021/09/08 01:46:33;;;;;;;35.88;24.80;;;;;;;17.58;54.06;95716.28;5013042;28;20034;-73
2021/09/08 01:48:58;;;;;;;32.35;26.50;;;;;;;17.58;54.09;95712.81;4993516;28;20031;-73
2021/09/08 01:51:24;;;;;;;31.42;24.48;;;;;;;17.45;53.93;95692.41;5011350;28;20407;-73
2021/09/08 01:53:49;;;;;;;35.70;27.73;;;;;;;17.51;53.97;95705.31;5010643;28;20096;-73
2021/09/08 01:56:15;;;;;;;35.92;26.90;;;;;;;17.47;54.30;95699.03;5009684;28;20030;-73
2021/09/08 01:58:41;;;;;;;39.63;26.73;;;;;;;17.43;54.13;95681.97;5010760;28;20033;-73
2021/09/08 02:01:06;;;;;;;30.15;24.60;;;;;;;17.44;54.28;95702.38;5012935;28;20026;-73
2021/09/08 02:03:32;;;;;;;33.90;26.23;;;;;;;17.50;54.27;95708.31;4993225;28;20061;-73
2021/09/08 02:05:57;;;;;;;36.25;26.90;;;;;;;17.40;54.44;95693.41;5011097;28;20042;-73
2021/09/08 02:08:23;;;;;;;32.65;25.80;;;;;;;17.45;54.49;95692.41;4992860;28;20087;-73
2021/09/08 02:10:48;;;;;;;32.95;25.05;;;;;;;17.38;54.82;95698.34;5010362;28;20033;-74
2021/09/08 02:13:14;;;;;;;39.42;26.80;;;;;;;17.51;54.37;95696.47;5012871;28;20167;-73
2021/09/08 02:15:39;;;;;;;35.25;26.58;;;;;;;17.41;54.31;95682.31;5010987;28;20037;-72
2021/09/08 02:18:05;;;;;;;32.13;24.95;;;;;;;17.35;54.42;95690.91;4993153;28;20675;-73
2021/09/08 02:20:31;;;;;;;36.78;25.80;;;;;;;17.41;54.58;95686.91;5010234;28;20517;-73
2021/09/08 02:22:56;;;;;;;28.05;23.80;;;;;;;17.50;54.57;95694.88;5010650;28;20535;-73
2021/09/08 02:25:22;;;;;;;36.42;26.88;;;;;;;17.47;54.39;95685.56;5011639;28;20045;-72
2021/09/08 02:27:47;;;;;;;28.73;24.13;;;;;;;17.46;54.04;95684.00;5010474;28;20506;-73
2021/09/08 02:30:13;;;;;;;29.33;23.75;;;;;;;17.46;54.13;95686.69;4992428;28;20064;-73
2021/09/08 02:32:39;;;;;;;34.92;25.65;;;;;;;17.53;53.92;95695.00;5010227;28;20526;-72
2021/09/08 02:35:06;;;;;;;31.70;24.80;;;;;;;17.53;54.08;95686.94;5010215;28;20041;-72
2021/09/08 02:37:32;;;;;;;40.85;28.42;;;;;;;17.49;54.13;95682.53;5012030;28;20030;-72
2021/09/08 02:39:58;;;;;;;32.85;26.83;;;;;;;17.46;54.07;95675.94;5009110;28;20108;-73
2021/09/08 02:42:23;;;;;;;37.78;26.50;;;;;;;17.55;53.86;95678.50;5010054;28;20054;-73
2021/09/08 02:44:49;;;;;;;34.35;25.48;;;;;;;17.53;53.87;95678.84;5009976;28;20044;-73
2021/09/08 02:47:16;;;;;;;34.53;27.10;;;;;;;17.56;53.91;95678.19;5010153;28;20113;-73
2021/09/08 02:49:41;;;;;;;42.03;28.88;;;;;;;17.51;53.80;95670.34;5009274;28;20025;-73
2021/09/08 02:52:07;;;;;;;30.77;24.60;;;;;;;17.57;53.68;95668.22;5011892;28;20022;-73
2021/09/08 02:54:32;;;;;;;37.00;27.95;;;;;;;17.64;53.60;95671.13;5008360;28;20120;-73
2021/09/08 02:56:57;;;;;;;44.30;30.35;;;;;;;17.59;53.67;95660.59;5008849;28;20460;-73
2021/09/08 02:59:23;;;;;;;36.00;27.95;;;;;;;17.44;53.95;95653.19;4991576;28;20064;-73
2021/09/08 03:01:48;;;;;;;47.25;30.85;;;;;;;17.56;54.00;95659.38;5009635;28;20018;-73
2021/09/08 03:04:13;;;;;;;35.05;26.38;;;;;;;17.55;53.88;95657.78;5011665;28;20018;-73
2021/09/08 03:06:39;;;;;;;38.75;29.40;;;;;;;17.56;53.70;95658.59;5009623;28;20042;-72
2021/09/08 03:09:04;;;;;;;41.38;29.25;;;;;;;17.52;53.70;95655.78;5008680;28;20038;-73
2021/09/08 03:11:29;;;;;;;36.33;26.67;;;;;;;17.46;53.84;95646.38;5009381;28;20038;-73
2021/09/08 03:13:55;;;;;;;39.00;29.23;;;;;;;17.63;53.66;95661.50;4991793;28;20108;-74
2021/09/08 03:16:20;;;;;;;37.72;28.60;;;;;;;17.63;53.73;95672.25;5011526;28;20030;-73
2021/09/08 03:18:46;;;;;;;39.53;28.80;;;;;;;17.63;53.59;95661.50;5009285;28;20042;-73
2021/09/08 03:21:11;;;;;;;38.13;27.63;;;;;;;17.55;53.58;95652.41;4991952;28;20030;-73
2021/09/08 03:23:36;;;;;;;39.28;28.42;;;;;;;17.50;53.84;95647.25;4991388;28;20054;-73
2021/09/08 03:26:02;;;;;;;42.72;28.50;;;;;;;17.52;53.82;95649.63;5009338;28;20045;-73
2021/09/08 03:28:27;;;;;;;36.38;28.00;;;;;;;17.53;53.59;95645.78;5011213;28;20057;-73
2021/09/08 03:30:53;;;;;;;43.50;28.05;;;;;;;17.54;54.22;95653.53;5009196;28;20038;-73
2021/09/08 03:33:18;;;;;;;40.65;29.25;;;;;;;17.53;53.83;95657.34;5009146;28;20042;-74
2021/09/08 03:35:44;;;;;;;33.55;26.38;;;;;;;17.49;53.90;95651.06;5009106;28;20045;-73
2021/09/08 03:38:10;;;;;;;33.20;25.83;;;;;;;17.44;54.03;95645.91;5009322;28;20129;-73
2021/09/08 03:40:36;;;;;;;41.83;30.33;;;;;;;17.58;53.59;95657.13;4992727;28;20029;-73
2021/09/08 03:43:01;;;;;;;36.00;27.75;;;;;;;17.50;53.60;95641.06;5009222;28;20034;-72
2021/09/08 03:45:27;;;;;;;41.72;30.00;;;;;;;17.49;53.93;95644.91;5009507;28;20045;-73
2021/09/08 03:47:52;;;;;;;34.30;26.73;;;;;;;17.52;53.72;95649.63;5009549;28;20065;-73
2021/09/08 03:50:18;;;;;;;47.63;31.08;;;;;;;17.53;53.56;95651.97;5009176;28;20042;-73
2021/09/08 03:52:43;;;;;;;49.38;31.17;;;;;;;17.44;53.68;95643.22;5009169;28;20026;-73
2021/09/08 03:55:09;;;;;;;39.13;27.92;;;;;;;17.59;53.76;95650.63;5011071;28;20021;-73
2021/09/08 03:57:34;;;;;;;37.80;28.90;;;;;;;17.50;53.68;95630.31;5009329;28;20046;-72
2021/09/08 04:00:00;;;;;;;36.17;26.42;;;;;;;17.47;53.84;95645.25;5008752;28;20034;-72
2021/09/08 04:02:25;;;;;;;50.35;33.55;;;;;;;17.62;53.71;95659.94;4991229;28;20077;-74
2021/09/08 04:04:50;;;;;;;35.95;27.33;;;;;;;17.43;53.77;95630.88;5009053;28;20022;-73
2021/09/08 04:07:16;;;;;;;39.45;27.17;;;;;;;17.54;53.58;95650.84;5011190;28;20034;-73
2021/09/08 04:09:41;;;;;;;44.90;30.25;;;;;;;17.45;53.75;95636.69;4990480;28;20044;-73
2021/09/08 04:12:06;;;;;;;46.28;30.75;;;;;;;17.44;53.88;95637.81;4991079;28;20121;-73
2021/09/08 04:14:32;;;;;;;35.63;27.30;;;;;;;17.38;54.06;95629.19;5008877;28;20042;-73
2021/09/08 04:16:57;;;;;;;35.13;26.60;;;;;;;17.40;53.97;95631.53;5008978;28;20046;-73
2021/09/08 04:19:22;;;;;;;39.15;26.92;;;;;;;17.51;53.83;95642.66;4993726;28;20530;-73
2021/09/08 04:21:48;;;;;;;42.38;30.48;;;;;;;17.23;54.44;95605.66;5012904;28;20061;-73
2021/09/08 04:24:13;;;;;;;38.63;26.58;;;;;;;17.51;54.10;95645.38;5012131;28;20104;-73
2021/09/08 04:26:39;;;;;;;40.10;29.02;;;;;;;17.47;54.10;95623.72;5012539;28;20026;-73
2021/09/08 04:29:04;;;;;;;36.00;26.58;;;;;;;17.47;54.28;95636.38;5012383;28;20112;-72
2021/09/08 04:31:30;;;;;;;37.33;26.83;;;;;;;17.46;54.30;95626.75;5014576;28;20049;-73
2021/09/08 04:33:55;;;;;;;40.25;27.52;;;;;;;17.55;54.27;95638.94;4995051;28;20065;-72
2021/09/08 04:36:20;;;;;;;36.55;28.08;;;;;;;17.52;54.40;95628.09;5013091;28;20042;-72
2021/09/08 04:38:46;;;;;;;44.53;28.55;;;;;;;17.58;54.27;95627.53;5011310;28;20053;-71
2021/09/08 04:41:12;;;;;;;43.10;31.00;;;;;;;17.60;54.15;95641.41;5012315;28;20050;-71
2021/09/08 04:43:38;;;;;;;39.97;29.10;;;;;;;17.68;54.09;95639.75;5014389;28;20633;-72
2021/09/08 04:46:03;;;;;;;50.70;33.42;;;;;;;17.63;54.16;95626.53;5012884;28;20042;-72
2021/09/08 04:48:28;;;;;;;45.75;31.00;;;;;;;17.70;53.99;95634.81;5012335;28;20038;-74
2021/09/08 04:50:54;;;;;;;37.17;28.27;;;;;;;17.67;53.79;95622.03;5012958;28;20061;-82
2021/09/08 04:53:20;;;;;;;45.58;32.03;;;;;;;17.54;54.11;95605.09;5013577;28;20418;-81
2021/09/08 04:55:45;;;;;;;43.35;30.90;;;;;;;17.64;53.68;95611.94;4995363;28;20029;-77
2021/09/08 04:58:10;;;;;;;38.78;29.08;;;;;;;17.82;53.79;95644.81;5014291;28;20022;-72
2021/09/08 05:00:36;;;;;;;39.65;29.30;;;;;;;17.79;53.80;95638.19;5012286;28;20096;-70
2021/09/08 05:03:01;;;;;;;42.95;29.95;;;;;;;17.83;53.57;95635.63;4994072;28;20038;-70
2021/09/08 05:05:26;;;;;;;30.15;24.80;;;;;;;17.89;53.55;95639.66;5012473;28;20061;-70
2021/09/08 05:07:52;;;;;;;32.15;25.13;;;;;;;17.95;53.31;95642.91;5011913;28;20022;-69
2021/09/08 05:10:17;;;;;;;29.98;24.52;;;;;;;18.02;53.61;95643.13;5012862;28;20030;-73
2021/09/08 05:12:43;;;;;;;39.17;27.50;;;;;;;18.01;53.59;95631.56;4993885;28;20115;-69
2021/09/08 05:15:09;;;;;;;34.80;27.83;;;;;;;18.09;53.41;95636.03;5011928;28;20045;-70
2021/09/08 05:17:34;;;;;;;40.47;29.73;;;;;;;18.12;53.15;95627.28;5011694;28;20538;-71
2021/09/08 05:20:02;;;;;;;37.28;28.13;;;;;;;18.17;53.10;95643.22;5011474;28;20096;-71
2021/09/08 05:22:28;;;;;;;33.22;27.88;;;;;;;18.27;53.21;95644.66;5013415;28;20042;-69
2021/09/08 05:24:53;;;;;;;39.03;29.02;;;;;;;18.30;53.17;95638.56;4993237;28;20134;-70
2021/09/08 05:27:18;;;;;;;35.63;27.83;;;;;;;18.42;53.10;95633.13;4993610;28;20046;-70
2021/09/08 05:29:44;;;;;;;32.40;27.13;;;;;;;18.54;53.03;95645.78;5011085;28;20057;-69
2021/09/08 05:32:09;;;;;;;32.70;26.50;;;;;;;18.51;52.89;95633.00;5010934;28;20126;-69
2021/09/08 05:34:34;;;;;;;36.28;27.60;;;;;;;18.67;52.78;95638.44;4995795;28;20380;-72
2021/09/08 05:36:59;;;;;;;30.60;24.52;;;;;;;18.77;52.79;95647.97;5010930;28;20045;-69
2021/09/08 05:39:25;;;;;;;26.75;22.48;;;;;;;18.85;52.42;95650.53;5010478;28;20420;-70
2021/09/08 05:41:50;;;;;;;25.70;22.80;;;;;;;18.86;52.22;95644.00;5011293;28;20065;-70
2021/09/08 05:44:16;;;;;;;24.88;22.20;;;;;;;18.90;52.12;95652.19;5011513;28;20112;-71
2021/09/08 05:46:41;;;;;;;29.95;23.77;;;;;;;19.07;51.88;95645.69;5011247;28;20025;-70
2021/09/08 05:49:06;;;;;;;27.15;21.85;;;;;;;18.94;51.97;95648.47;5012507;28;20547;-70
2021/09/08 05:51:32;;;;;;;26.48;22.77;;;;;;;18.72;52.57;95637.44;4993455;28;20034;-70
2021/09/08 05:53:57;;;;;;;26.98;22.27;;;;;;;19.04;51.85;95647.19;5010477;28;20046;-70
2021/09/08 05:56:23;;;;;;;24.58;21.45;;;;;;;19.02;51.98;95649.44;5010801;28;20030;-71
2021/09/08 05:58:48;;;;;;;24.33;21.70;;;;;;;19.23;51.65;95636.50;5010761;28;20554;-71
2021/09/08 06:01:13;;;;;;;24.90;20.88;;;;;;;19.32;51.50;95635.56;4995653;28;20021;-70
2021/09/08 06:03:39;;;;;;;23.30;20.80;;;;;;;19.54;51.14;95647.63;5011117;28;20068;-71
2021/09/08 06:06:04;;;;;;;23.50;20.88;;;;;;;19.46;50.80;95630.50;5011050;28;20365;-71
2021/09/08 06:08:30;;;;;;;24.40;19.95;;;;;;;19.46;50.92;95633.22;5010671;28;20030;-71
2021/09/08 06:10:56;;;;;;;24.17;21.58;;;;;;;19.82;50.71;95644.88;5010215;28;20564;-71
2021/09/08 06:13:21;;;;;;;23.80;21.27;;;;;;;19.98;50.30;95634.81;5012614;28;20026;-72
2021/09/08 06:15:46;;;;;;;29.45;20.63;;;;;;;20.14;50.31;95630.16;5010558;28;20052;-71
2021/09/08 06:18:12;;;;;;;25.05;21.73;;;;;;;20.16;49.83;95632.50;5010340;28;20484;-70
2021/09/08 06:20:37;;;;;;;23.65;21.17;;;;;;;20.26;49.76;95635.44;5009686;28;20038;-70
2021/09/08 06:23:03;;;;;;;22.90;19.50;;;;;;;20.42;49.52;95638.09;5010148;28;20054;-71
2021/09/08 06:25:28;;;;;;;28.30;19.17;;;;;;;20.51;49.29;95616.28;4993820;28;20557;-71
2021/09/08 06:27:54;;;;;;;24.73;19.02;;;;;;;20.58;49.06;95629.97;5009782;28;20026;-71
2021/09/08 06:30:19;;;;;;;20.88;17.83;;;;;;;20.65;49.01;95630.09;5009759;28;20030;-71
2021/09/08 06:32:45;;;;;;;23.77;18.70;;;;;;;20.74;48.85;95619.06;5009927;28;20065;-71
2021/09/08 06:35:10;;;;;;;29.85;20.73;;;;;;;20.87;48.44;95614.28;5010049;28;20046;-71
2021/09/08 06:37:36;;;;;;;19.70;17.45;;;;;;;20.91;48.22;95620.53;5011913;28;20472;-72
2021/09/08 06:40:02;;;;;;;20.50;18.38;;;;;;;21.02;47.95;95624.22;5009066;28;20030;-72
2021/09/08 06:42:27;;;;;;;19.13;17.05;;;;;;;20.84;48.28;95617.72;5008783;28;20071;-72
2021/09/08 06:44:53;;;;;;;19.55;17.20;;;;;;;20.81;48.11;95600.25;5009928;28;20061;-78
2021/09/08 06:47:25;;;;;;;22.00;16.60;;;;;;;21.17;48.01;95617.91;4992273;28;20081;-72
2021/09/08 06:49:51;;;;;;;21.70;17.58;;;;;;;21.28;47.85;95613.47;5009470;28;20668;-73
2021/09/08 06:52:18;;;;;;;18.83;16.83;;;;;;;21.27;47.24;95619.25;5011488;28;20453;-73
2021/09/08 06:54:43;;;;;;;17.77;15.88;;;;;;;21.25;47.99;95614.19;5009414;28;20403;-73
2021/09/08 06:57:13;;;;;;;20.02;15.45;;;;;;;21.43;47.27;95609.09;5009557;28;20041;-73
2021/09/08 06:59:41;;;;;;;18.65;16.10;;;;;;;21.55;47.03;95613.56;5009402;28;20038;-72
2021/09/08 07:02:07;;;;;;;19.38;15.85;;;;;;;21.51;47.01;95599.19;4992344;28;20030;-72
2021/09/08 07:04:32;;;;;;;16.40;14.70;;;;;;;21.68;46.93;95604.09;4994343;28;20049;-72
2021/09/08 07:06:58;;;;;;;15.88;14.35;;;;;;;21.90;46.69;95607.09;5009436;28;20042;-73
2021/09/08 07:09:23;;;;;;;17.60;14.65;;;;;;;21.96;46.54;95592.13;5009215;28;20038;-72
2021/09/08 07:11:49;;;;;;;19.73;15.13;;;;;;;21.96;46.20;95603.72;5009402;28;20045;-74
2021/09/08 07:14:14;;;;;;;17.05;14.15;;;;;;;21.91;45.96;95576.97;5009405;28;20038;-71
2021/09/08 07:16:39;;;;;;;16.08;14.35;;;;;;;22.11;46.31;95595.81;4992575;28;20026;-74
2021/09/08 07:19:04;;;;;;;15.50;13.85;;;;;;;21.50;47.17;95568.63;5011197;28;20379;-74
2021/09/08 07:21:30;;;;;;;14.98;13.68;;;;;;;22.03;46.39;95576.72;5009529;28;20120;-75
2021/09/08 07:23:55;;;;;;;15.38;13.77;;;;;;;22.03;46.77;95586.78;5009740;28;20495;-75
2021/09/08 07:26:20;;;;;;;13.98;12.68;;;;;;;22.11;45.91;95584.97;5008757;28;20060;-74
2021/09/08 07:28:46;;;;;;;14.48;12.98;;;;;;;22.28;45.72;95596.06;4991270;28;20026;-74
2021/09/08 07:31:11;;;;;;;15.20;13.90;;;;;;;21.78;46.17;95570.19;5011362;28;20080;-74
2021/09/08 07:33:38;;;;;;;15.18;13.70;;;;;;;22.04;46.45;95580.22;5009265;28;20680;-73
2021/09/08 07:36:03;;;;;;;15.40;12.75;;;;;;;22.28;45.92;95589.84;5009507;28;20117;-73
2021/09/08 07:38:29;;;;;;;13.25;12.13;;;;;;;22.10;46.54;95589.59;5008890;28;20137;-75
2021/09/08 07:40:55;;;;;;;13.32;11.48;;;;;;;22.58;45.74;95570.88;5008269;28;20026;-74
2021/09/08 07:43:21;;;;;;;12.82;11.73;;;;;;;22.42;45.73;95591.94;5011004;28;20041;-74
2021/09/08 07:45:47;;;;;;;12.10;10.90;;;;;;;22.65;45.64;95589.91;5009012;28;20038;-73
2021/09/08 07:48:12;;;;;;;12.98;11.43;;;;;;;22.76;44.86;95593.50;5008872;28;20041;-73
2021/09/08 07:50:38;;;;;;;12.63;11.18;;;;;;;22.99;44.66;95585.28;4990905;28;20041;-73
2021/09/08 07:53:08;;;;;;;16.38;10.75;;;;;;;22.95;44.59;95570.88;5009139;28;20114;-71
2021/09/08 07:55:34;;;;;;;12.45;11.35;;;;;;;22.99;44.66;95581.78;5010484;28;20471;-72
2021/09/08 07:57:59;;;;;;;11.68;10.55;;;;;;;23.38;44.80;95584.81;5008629;28;20193;-73
2021/09/08 08:00:25;;;;;;;12.65;11.43;;;;;;;23.47;44.32;95579.09;5008233;28;20037;-73
2021/09/08 08:02:51;;;;;;;12.00;10.48;;;;;;;23.22;44.58;95587.00;5008627;28;20061;-72
2021/09/08 08:05:19;;;;;;;13.20;11.35;;;;;;;23.41;44.20;95584.09;5008605;28;20403;-74
2021/09/08 08:07:46;;;;;;;12.20;10.90;;;;;;;23.44;43.48;95587.97;5008776;28;20045;-73
2021/09/08 08:10:13;;;;;;;11.98;10.63;;;;;;;23.63;43.06;95586.97;5009798;28;20539;-74
2021/09/08 08:12:39;;;;;;;15.27;10.32;;;;;;;23.54;43.31;95577.19;5008563;28;20049;-74
2021/09/08 08:15:05;;;;;;;11.52;10.52;;;;;;;23.72;43.62;95577.38;5009126;28;20034;-73
2021/09/08 08:17:31;;;;;;;15.30;10.48;;;;;;;23.77;43.20;95587.88;4991206;28;20462;-73
2021/09/08 08:19:56;;;;;;;14.82;9.38;;;;;;;24.03;42.81;95584.16;5008283;28;20110;-74
2021/09/08 08:22:21;;;;;;;10.77;9.65;;;;;;;23.94;43.53;95586.44;5010376;28;20033;-73
2021/09/08 08:24:47;;;;;;;11.45;10.35;;;;;;;23.87;42.67;95572.81;4990631;28;20129;-73
2021/09/08 08:27:12;;;;;;;11.52;10.15;;;;;;;24.23;42.17;95576.50;5008351;28;20032;-73
2021/09/08 08:29:37;;;;;;;14.32;9.68;;;;;;;23.80;42.86;95586.31;5008159;28;20129;-75
2021/09/08 08:32:04;;;;;;;11.15;10.00;;;;;;;24.17;43.03;95582.69;5008203;28;20134;-73
2021/09/08 08:34:30;;;;;;;10.80;9.70;;;;;;;24.19;42.61;95583.06;4992336;28;20452;-74
2021/09/08 08:36:56;;;;;;;11.63;9.80;;;;;;;24.04;42.64;95576.78;5008465;28;20117;-74
2021/09/08 08:39:22;;;;;;;10.43;9.40;;;;;;;24.23;42.73;95583.88;5008004;28;20125;-75
2021/09/08 08:41:47;;;;;;;13.55;9.98;;;;;;;24.15;42.83;95576.84;5007547;28;20104;-74
2021/09/08 08:44:18;;;;;;;10.25;9.35;;;;;;;24.49;42.08;95585.56;5008242;28;20434;-73
2021/09/08 08:46:43;;;;;;;9.77;8.98;;;;;;;24.55;41.67;95584.03;5008404;28;20022;-74
2021/09/08 08:49:09;;;;;;;10.18;9.18;;;;;;;24.34;41.54;95577.31;5009972;28;20152;-74
2021/09/08 08:51:34;;;;;;;12.73;9.65;;;;;;;24.36;42.03;95577.75;5008456;28;20061;-74
2021/09/08 08:53:59;;;;;;;9.30;8.48;;;;;;;24.71;41.68;95572.81;5008345;28;20472;-74
2021/09/08 08:56:25;;;;;;;12.15;9.10;;;;;;;24.06;42.82;95579.91;5007753;28;20100;-74
2021/09/08 08:58:54;;;;;;;11.20;10.20;;;;;;;23.97;43.04;95574.03;5007693;28;20419;-73
2021/09/08 09:01:20;;;;;;;10.77;9.77;;;;;;;24.62;41.81;95570.47;5010167;28;20018;-74
2021/09/08 09:03:59;;;;;;;10.25;9.35;;;;;;;24.31;43.05;95569.13;5008100;28;20034;-74
2021/09/08 09:06:25;;;;;;;9.65;8.80;;;;;;;24.68;42.61;95568.16;5010210;28;20046;-74
2021/09/08 09:09:01;;;;;;;10.75;9.60;;;;;;;25.07;41.79;95555.41;5011364;28;20092;-74
2021/09/08 09:11:26;;;;;;;9.98;8.80;;;;;;;24.99;42.25;95562.00;5011206;28;20086;-73
2021/09/08 09:13:52;;;;;;;10.27;9.27;;;;;;;24.74;42.19;95553.78;4994203;28;20472;-75
2021/09/08 09:16:17;;;;;;;10.05;9.13;;;;;;;24.27;43.08;95554.78;5013611;28;20030;-73
2021/09/08 09:18:43;;;;;;;10.73;9.63;;;;;;;24.61;41.94;95560.75;5010982;28;20050;-73
2021/09/08 09:21:13;;;;;;;10.40;9.52;;;;;;;24.34;42.83;95550.13;5011840;28;20050;-73
2021/09/08 09:23:47;;;;;;;9.10;8.27;;;;;;;25.17;41.70;95550.38;5011736;28;20470;-73
2021/09/08 09:26:13;;;;;;;9.32;8.40;;;;;;;25.33;40.94;95548.03;5013459;28;20038;-80
2021/09/08 09:28:41;;;;;;;9.82;8.93;;;;;;;25.73;40.26;95544.13;5011627;28;20101;-69
2021/09/08 09:31:14;;;;;;;10.30;9.30;;;;;;;25.84;40.04;95550.34;5014057;28;20061;-72
2021/09/08 09:33:44;;;;;;;10.13;8.93;;;;;;;26.01;39.73;95548.78;5011525;28;20088;-72
2021/09/08 09:36:21;;;;;;;9.13;8.32;;;;;;;26.09;39.57;95554.97;5011720;28;20069;-72
2021/09/08 09:38:49;;;;;;;9.60;8.80;;;;;;;25.63;40.33;95539.47;5010995;28;20060;-72
2021/09/08 09:41:23;;;;;;;11.27;9.48;;;;;;;26.14;39.59;95538.22;5010900;28;20128;-73
2021/09/08 09:43:49;;;;;;;10.50;8.30;;;;;;;26.17;39.74;95534.72;5011291;28;20535;-72
2021/09/08 09:46:15;;;;;;;10.43;9.07;;;;;;;26.31;39.26;95534.66;5013293;28;20106;-73
2021/09/08 09:48:41;;;;;;;11.25;10.18;;;;;;;25.85;40.05;95535.59;5011028;28;20372;-73
2021/09/08 09:51:12;;;;;;;12.07;10.30;;;;;;;26.02;39.71;95523.06;5010865;28;20041;-72
2021/09/08 09:53:38;;;;;;;11.20;10.15;;;;;;;26.07;39.64;95527.34;5010888;28;20049;-72
2021/09/08 09:56:04;;;;;;;17.83;10.10;;;;;;;26.48;38.40;95521.38;5010580;28;20531;-72
2021/09/08 09:58:30;;;;;;;11.70;9.80;;;;;;;25.93;38.81;95518.03;5012780;28;20037;-72
2021/09/08 10:00:55;;;;;;;12.60;9.30;;;;;;;25.95;39.86;95527.75;5010772;28;20042;-73
2021/09/08 10:03:22;;;;;;;9.30;8.45;;;;;;;25.72;39.15;95520.00;5010917;28;20046;-73
2021/09/08 10:05:48;;;;;;;9.75;8.88;;;;;;;26.41;38.97;95525.66;5011074;28;20038;-74
2021/09/08 10:08:17;;;;;;;11.20;9.30;;;;;;;26.26;39.23;95510.53;5010754;28;20603;-71
2021/09/08 10:10:45;;;;;;;10.35;9.23;;;;;;;26.73;37.93;95511.09;5009974;28;20026;-71
2021/09/08 10:13:32;;;;;;;10.45;9.30;;;;;;;26.72;39.07;95516.94;4994986;28;20025;-71
2021/09/08 10:15:59;;;;;;;10.15;9.13;;;;;;;26.83;38.49;95512.97;5010711;28;20049;-70
2021/09/08 10:18:26;;;;;;;10.80;9.75;;;;;;;26.60;38.52;95515.44;5009608;28;20026;-70
2021/09/08 10:21:06;;;;;;;10.23;9.05;;;;;;;27.17;37.31;95506.91;5010112;28;20052;-71
2021/09/08 10:23:53;;;;;;;9.27;8.50;;;;;;;27.04;37.83;95509.31;5010451;28;20062;-71
2021/09/08 10:26:19;;;;;;;10.65;9.68;;;;;;;27.06;36.96;95498.75;4985187;28;20061;-70
2021/09/08 10:28:46;;;;;;;9.65;8.77;;;;;;;26.99;37.05;95484.41;5009943;28;20022;-70
2021/09/08 10:31:14;;;;;;;9.95;8.98;;;;;;;27.31;36.39;95495.09;5012430;28;20591;-71
2021/09/08 10:33:41;;;;;;;10.52;9.52;;;;;;;27.42;36.38;95493.03;5010217;28;20456;-70
2021/09/08 10:36:11;;;;;;;9.50;8.70;;;;;;;27.37;36.51;95488.78;5010182;28;20088;-71
2021/09/08 10:38:36;;;;;;;9.25;8.32;;;;;;;27.52;36.35;95491.38;5009820;28;20130;-70
2021/09/08 10:41:07;;;;;;;9.80;8.90;;;;;;;27.36;36.10;95481.00;5009223;28;20153;-70
2021/09/08 10:43:35;;;;;;;9.90;9.02;;;;;;;27.05;36.55;95486.28;5003902;28;20107;-71
2021/09/08 10:46:01;;;;;;;8.52;7.55;;;;;;;27.41;36.68;95484.06;5010084;28;20041;-71
2021/09/08 10:48:42;;;;;;;9.55;8.73;;;;;;;27.67;36.17;95484.59;5009563;28;20038;-71
2021/09/08 10:51:21;;;;;;;8.93;8.10;;;;;;;27.16;36.36;95467.91;5009853;28;20416;-70
2021/09/08 10:54:06;;;;;;;8.98;8.20;;;;;;;27.84;35.43;95477.41;5009751;28;20030;-71
2021/09/08 10:56:46;;;;;;;8.60;7.80;;;;;;;28.04;35.57;95474.84;5009115;28;20499;-70
2021/09/08 10:59:11;;;;;;;7.63;7.03;;;;;;;28.04;35.32;95470.16;5009148;28;20045;-70
2021/09/08 11:01:37;;;;;;;8.07;7.47;;;;;;;27.98;34.62;95467.09;5011576;28;20111;-67
2021/09/08 11:04:03;;;;;;;7.97;7.20;;;;;;;28.16;34.55;95466.13;5010186;28;20615;-71
2021/09/08 11:06:37;;;;;;;8.93;8.10;;;;;;;28.12;34.94;95468.88;5010351;28;20034;-75
2021/09/08 11:09:04;;;;;;;9.23;7.82;;;;;;;27.29;36.24;95462.72;5010448;28;20042;-72
2021/09/08 11:11:30;;;;;;;8.20;7.43;;;;;;;27.19;36.57;95463.59;5009265;28;20034;-71
2021/09/08 11:13:56;;;;;;;8.63;7.82;;;;;;;27.40;36.36;95460.66;4991839;28;20025;-70
2021/09/08 11:16:27;;;;;;;8.18;7.57;;;;;;;27.94;35.35;95460.88;5011587;28;20022;-69